Startpagina
METAR-TAF:

METAR-TAF

Vliegvelden :

Phillip Goldston

Belize City, Belize

breedte: 17-32N, lengte: 088-18W, hoogte: 5 m

Actueel weer

Dit bericht is 11 minuten geleden gemaakt, om 17:00 UTC
Wind 9 kt uit het oostnoordoosten
Temperatuur 31°C
Vochtigheid 66%
Druk 1015 hPa
Zicht 10 km of meer
Verspreide wolken op 2400 ft

METAR: MZBZ 151700Z 07009KT 9999 SCT024 31/24 A2999 Q1015 NOSIG

Tijdstip: 11:11 (17:11 UTC)

Verwachting

Dit bericht is 8 uur en het 11 minuten geleden gemaakt, om 09:00 UTC
Verwachting geldig van 15 om 12 UTC tot 16 om 12 UTC
Wind 10 kt uit het oosten
Zicht 10 km of meer
Verspreide wolken op 2300 ft
Kans 30% :
Tijdelijke
van 15 om 12 UTC tot 15 om 21 UTC
Zicht: 5000 m
Gebroken wolken op 1500 ft
regenbuien

TAF: MZBZ 150900Z 1512/1612 09010KT 9999 SCT023 PROB30 TEMPO 1512/1521 5000 SHRA BKN015

Waarnemingen en weersverwachtingen van meer dan 4000 vliegvelden (METAR en TAF).

De beschikbare stations zijn de gele en rode punten op de kaart.

Ga met uw muis naar het station om de naam te zien.

Klik dan om waarnemingen en weersverwachtingen te zien.

kaart wijzigen: klik op de groene knoppen met een zwart kruis om in te zoomen, op de groene knop met een streepje om uit te zoomen of op de groene pijlen voor aangrenzende kaarten.


METAR-TAF: